logo
Rechercher aéroport 
image banner adimage banner adimage banner ad
image banner ad

FAKA - Kagga Kamma

Situé à Kagga Kamma Private Game Reserve, South Africa

ICAO - FAKA, IATA -

Données fournies par Airmate  

Information générale

Coordonnées: S32°43'47" E19°32'21"
Élévation : 3277 feet MSL.
 
Voir autres Aéroports à Western Cape

Données opérationnelles

Special qualification required
Heure actuelle UTC:
Heure actuelle locale:
Météo à : - ( 0 km )
METAR: UWSG 191320Z 29009G14MPS 270V340 CAVOK 29/14 Q1012 R26/CLRD70 NOSIG RMK QFE756/1008
Voir NOTAMs / SUP AIP / TFR affectant cet aéroport [VIEW]
Fréquences de communication: [VIEW]

Pistes:

Identifiant RWYQFULongueur (ft)Largeur (ft)SurfaceLDA (ft)
1814°4101164SAND
36194°4101164SAND

Coordonnées de l'aéroport

Adresse: Kagga Kamma Private Game Reserve South Africa

Vue satellite de FAKA